createdAt,value
2023-05-10T00:00:36.951Z,71.12
2023-05-10T00:03:40.301Z,71.42
2023-05-10T00:06:43.710Z,71.77
2023-05-10T00:09:47.120Z,71.59
2023-05-10T00:12:50.240Z,71.25
2023-05-10T00:15:53.133Z,72.31
2023-05-10T00:18:56.488Z,72.38
2023-05-10T00:22:02.585Z,73.09
2023-05-10T00:25:06.510Z,73.09
2023-05-10T00:28:09.823Z,73.11
2023-05-10T00:31:15.797Z,73.22
2023-05-10T00:34:18.783Z,73.10
2023-05-10T00:37:21.921Z,72.17
2023-05-10T00:40:26.003Z,72.19
2023-05-10T00:43:33.744Z,72.08
2023-05-10T00:46:38.537Z,72.28
2023-05-10T00:49:42.877Z,72.60
2023-05-10T00:52:45.990Z,73.16
2023-05-10T00:55:49.465Z,73.29
2023-05-10T00:58:53.017Z,73.40
2023-05-10T01:01:56.218Z,73.56
2023-05-10T01:05:00.303Z,73.76
2023-05-10T01:08:03.981Z,74.02
2023-05-10T01:11:08.183Z,73.56
2023-05-10T01:14:11.863Z,73.13
2023-05-10T01:17:15.682Z,73.38
2023-05-10T01:20:19.472Z,73.07
2023-05-10T01:23:38.257Z,72.40
2023-05-10T01:26:41.491Z,73.22
2023-05-10T01:30:14.929Z,71.79
2023-05-10T01:33:31.460Z,71.65
2023-05-10T01:36:59.819Z,73.18
2023-05-10T01:40:27.259Z,73.37
2023-05-10T01:43:38.337Z,73.92
2023-05-10T01:46:42.032Z,74.64
2023-05-10T01:49:50.809Z,75.06
2023-05-10T01:52:59.994Z,75.53
2023-05-10T01:56:03.994Z,75.14
2023-05-10T01:59:12.670Z,74.93
2023-05-10T02:02:17.947Z,75.41
2023-05-10T02:05:22.851Z,76.30
2023-05-10T02:08:26.735Z,76.14
2023-05-10T02:11:30.902Z,76.77
2023-05-10T02:14:37.458Z,76.48
2023-05-10T02:17:43.319Z,76.82
2023-05-10T02:20:47.931Z,75.01
2023-05-10T02:23:53.709Z,74.71
2023-05-10T02:26:58.335Z,74.42
2023-05-10T02:30:02.534Z,74.89
2023-05-10T02:33:07.478Z,75.07
2023-05-10T02:36:11.724Z,74.80
2023-05-10T02:39:16.775Z,74.12
2023-05-10T02:42:26.924Z,74.23
2023-05-10T02:45:32.417Z,75.02
2023-05-10T02:48:35.524Z,75.85
2023-05-10T02:51:51.189Z,75.50
2023-05-10T02:54:59.578Z,74.37
2023-05-10T02:58:03.816Z,75.71
2023-05-10T03:01:08.767Z,75.83
2023-05-10T03:04:13.345Z,76.41
2023-05-10T03:07:18.026Z,76.46
2023-05-10T03:10:25.591Z,77.89
2023-05-10T03:13:36.525Z,77.76
2023-05-10T03:16:58.431Z,77.84
2023-05-10T03:20:08.598Z,76.68
2023-05-10T03:23:31.409Z,78.49
2023-05-10T03:26:36.188Z,78.90
2023-05-10T03:29:47.692Z,78.27
2023-05-10T03:32:51.787Z,79.31
2023-05-10T03:35:55.376Z,79.17
2023-05-10T03:38:58.501Z,78.58
2023-05-10T03:42:01.914Z,79.60
2023-05-10T03:45:08.326Z,79.30
2023-05-10T03:48:11.683Z,79.02
2023-05-10T03:51:14.823Z,78.13
2023-05-10T03:54:18.175Z,78.25
2023-05-10T03:57:21.471Z,77.89
2023-05-10T04:00:25.105Z,77.12
2023-05-10T04:03:31.092Z,77.86
2023-05-10T04:06:34.905Z,77.09
2023-05-10T04:09:38.148Z,78.00
2023-05-10T04:12:41.455Z,78.78
2023-05-10T04:15:44.958Z,79.05
2023-05-10T04:18:48.194Z,78.55
2023-05-10T04:21:51.143Z,78.55
2023-05-10T04:24:54.217Z,78.67
2023-05-10T04:27:57.217Z,78.71
2023-05-10T04:31:11.528Z,79.96
2023-05-10T04:34:14.482Z,79.64
2023-05-10T04:37:18.190Z,78.39
2023-05-10T04:40:21.632Z,76.83
2023-05-10T04:43:24.710Z,76.32
2023-05-10T04:46:27.916Z,75.75
2023-05-10T04:49:31.419Z,75.23
2023-05-10T04:52:34.810Z,75.25
2023-05-10T04:55:38.137Z,75.01
2023-05-10T04:58:41.615Z,75.40
2023-05-10T05:01:45.089Z,75.02
2023-05-10T05:04:48.433Z,74.05
2023-05-10T05:07:51.959Z,73.82
2023-05-10T05:10:57.972Z,72.07
2023-05-10T05:14:00.884Z,72.10
2023-05-10T05:17:03.872Z,72.20
2023-05-10T05:20:07.281Z,71.89
2023-05-10T05:23:10.485Z,71.46
2023-05-10T05:26:13.665Z,69.85
2023-05-10T05:29:16.831Z,69.86
2023-05-10T05:32:19.776Z,68.14
2023-05-10T05:35:22.769Z,66.91
2023-05-10T05:38:25.654Z,67.46
2023-05-10T05:41:28.665Z,66.80
2023-05-10T05:44:32.183Z,66.53
2023-05-10T05:47:35.789Z,66.68
2023-05-10T05:50:39.005Z,65.33
2023-05-10T05:53:42.237Z,64.97
2023-05-10T05:56:45.645Z,64.41
2023-05-10T05:59:48.765Z,64.43
2023-05-10T06:02:51.999Z,62.46
2023-05-10T06:05:55.190Z,63.01
2023-05-10T06:08:58.609Z,63.28
2023-05-10T06:12:01.731Z,63.57
2023-05-10T06:15:06.113Z,62.12
2023-05-10T06:18:09.619Z,62.89
2023-05-10T06:21:13.093Z,62.48
2023-05-10T06:24:16.237Z,64.22
2023-05-10T06:27:19.575Z,61.89
2023-05-10T06:30:24.329Z,60.97
2023-05-10T06:33:30.201Z,60.36
2023-05-10T06:36:33.683Z,59.95
2023-05-10T06:39:36.939Z,60.79
2023-05-10T06:42:40.149Z,58.67
2023-05-10T06:45:49.522Z,60.48
2023-05-10T06:48:53.652Z,60.61
2023-05-10T06:51:57.973Z,62.88
2023-05-10T06:55:21.248Z,60.41
2023-05-10T06:58:24.578Z,59.47
2023-05-10T07:01:27.693Z,58.94
2023-05-10T07:04:30.679Z,60.16
2023-05-10T07:07:33.819Z,58.23
2023-05-10T07:10:37.004Z,59.89
2023-05-10T07:13:42.400Z,57.83
2023-05-10T07:16:45.837Z,59.07
2023-05-10T07:19:49.524Z,59.09
2023-05-10T07:22:52.426Z,58.19
2023-05-10T07:25:55.664Z,57.43
2023-05-10T07:29:00.651Z,56.64
2023-05-10T07:32:04.176Z,57.92
2023-05-10T07:35:08.002Z,55.99
2023-05-10T07:38:12.296Z,57.10
2023-05-10T07:41:15.633Z,55.83
2023-05-10T07:44:21.802Z,56.77
2023-05-10T07:47:24.949Z,58.22
2023-05-10T07:50:28.448Z,57.20
2023-05-10T07:53:31.850Z,57.09
2023-05-10T07:56:35.732Z,56.19
2023-05-10T07:59:38.914Z,56.56
2023-05-10T08:02:42.744Z,55.80
2023-05-10T08:05:46.090Z,55.51
2023-05-10T08:08:51.441Z,56.65
2023-05-10T08:11:54.769Z,56.36
2023-05-10T08:14:58.203Z,57.75
2023-05-10T08:18:02.854Z,57.38
2023-05-10T08:21:06.180Z,57.93
2023-05-10T08:24:09.210Z,57.91
2023-05-10T08:27:12.535Z,58.55
2023-05-10T08:30:15.842Z,56.78
2023-05-10T08:33:20.332Z,58.07
2023-05-10T08:36:25.493Z,57.90
2023-05-10T08:39:30.640Z,57.93
2023-05-10T08:42:38.995Z,56.25
2023-05-10T08:45:48.916Z,58.01
2023-05-10T08:48:53.345Z,56.33
2023-05-10T08:51:57.679Z,57.17
2023-05-10T08:55:00.894Z,55.55
2023-05-10T08:58:05.179Z,57.42
2023-05-10T09:01:09.957Z,56.67
2023-05-10T09:04:13.841Z,56.04
2023-05-10T09:07:17.715Z,56.24
2023-05-10T09:10:21.761Z,53.89
2023-05-10T09:13:26.024Z,53.00
2023-05-10T09:16:29.172Z,54.53
2023-05-10T09:19:32.203Z,53.48
2023-05-10T09:22:36.196Z,54.22
2023-05-10T09:25:40.204Z,52.90
2023-05-10T09:28:57.260Z,51.55
2023-05-10T09:32:01.869Z,52.91
2023-05-10T09:35:12.604Z,51.35
2023-05-10T09:38:15.514Z,51.13
2023-05-10T09:41:26.096Z,51.78
2023-05-10T09:44:29.356Z,51.75
2023-05-10T09:47:37.160Z,52.29
2023-05-10T09:50:40.218Z,51.23
2023-05-10T09:53:43.738Z,53.95
2023-05-10T09:56:46.642Z,50.20
2023-05-10T09:59:50.358Z,51.98
2023-05-10T10:02:58.334Z,52.08
2023-05-10T10:06:02.000Z,50.74
2023-05-10T10:09:07.431Z,51.82
2023-05-10T10:12:10.611Z,53.73
2023-05-10T10:15:16.607Z,48.99
2023-05-10T10:18:24.768Z,53.30
2023-05-10T10:21:29.553Z,50.29
2023-05-10T10:24:33.054Z,50.20
2023-05-10T10:27:54.610Z,50.75
2023-05-10T10:31:03.577Z,50.60
2023-05-10T10:34:09.098Z,48.37
2023-05-10T10:37:12.688Z,49.63
2023-05-10T10:40:26.012Z,48.85
2023-05-10T10:43:30.533Z,51.49
2023-05-10T10:46:35.594Z,48.57
2023-05-10T10:49:44.791Z,47.02
2023-05-10T10:52:50.609Z,48.66
2023-05-10T10:56:07.591Z,47.04
2023-05-10T10:59:13.332Z,44.01
2023-05-10T11:02:46.945Z,46.24
2023-05-10T11:05:52.379Z,47.83
2023-05-10T11:08:56.160Z,48.86
2023-05-10T11:12:01.430Z,46.92
2023-05-10T11:15:05.113Z,43.59
2023-05-10T11:18:22.593Z,41.63
2023-05-10T11:21:25.909Z,42.74
2023-05-10T11:24:29.593Z,44.56
2023-05-10T11:27:34.353Z,42.90
2023-05-10T11:30:40.641Z,44.07
2023-05-10T11:33:48.359Z,46.19
2023-05-10T11:36:56.458Z,43.00
2023-05-10T11:39:59.748Z,44.11
2023-05-10T11:43:03.820Z,44.74
2023-05-10T11:46:13.231Z,43.33
2023-05-10T11:49:16.824Z,43.58
2023-05-10T11:52:20.318Z,42.41
2023-05-10T11:55:25.425Z,42.41
2023-05-10T11:58:28.770Z,44.09
2023-05-10T12:01:32.693Z,41.49
2023-05-10T12:04:36.598Z,41.99
2023-05-10T12:07:40.056Z,41.15
2023-05-10T12:10:43.802Z,40.65
2023-05-10T12:13:51.150Z,40.93
2023-05-10T12:16:54.433Z,40.16
2023-05-10T12:20:15.276Z,40.48
2023-05-10T12:23:19.040Z,38.47
2023-05-10T12:26:27.617Z,40.82
2023-05-10T12:29:32.159Z,41.74
2023-05-10T12:32:48.138Z,40.89
2023-05-10T12:35:54.750Z,40.29
2023-05-10T12:39:04.438Z,40.95
2023-05-10T12:42:08.526Z,40.01
2023-05-10T12:45:12.880Z,41.56
2023-05-10T12:48:19.107Z,40.55
2023-05-10T12:51:26.509Z,40.17
2023-05-10T12:54:30.361Z,42.91
2023-05-10T12:57:34.329Z,43.57
2023-05-10T13:00:39.092Z,42.40
2023-05-10T13:03:42.250Z,44.46
2023-05-10T13:06:45.524Z,42.66
2023-05-10T13:09:48.910Z,41.39
2023-05-10T13:12:52.952Z,41.62
2023-05-10T13:15:56.345Z,41.89
2023-05-10T13:19:00.131Z,41.46
2023-05-10T13:22:07.213Z,40.44
2023-05-10T13:25:10.865Z,41.55
2023-05-10T13:28:14.398Z,42.92
2023-05-10T13:31:17.982Z,43.01
2023-05-10T13:34:21.971Z,43.08
2023-05-10T13:37:25.315Z,43.61
2023-05-10T13:40:29.217Z,47.71
2023-05-10T13:43:32.465Z,45.37
2023-05-10T13:46:36.042Z,45.37
2023-05-10T13:49:39.600Z,42.91
2023-05-10T13:52:43.233Z,42.58
2023-05-10T13:55:46.572Z,44.16
2023-05-10T13:58:49.873Z,43.41
2023-05-10T14:01:53.025Z,43.06
2023-05-10T14:04:56.141Z,43.90
2023-05-10T14:07:59.162Z,46.31
2023-05-10T14:11:03.781Z,45.07
2023-05-10T14:14:06.723Z,45.26
2023-05-10T14:17:12.527Z,44.28
2023-05-10T14:20:16.260Z,44.21
2023-05-10T14:23:21.367Z,45.51
2023-05-10T14:26:24.473Z,43.99
2023-05-10T14:29:27.514Z,44.34
2023-05-10T14:32:30.515Z,44.29
2023-05-10T14:35:33.975Z,46.16
2023-05-10T14:38:37.207Z,45.76
2023-05-10T14:41:45.518Z,45.57
2023-05-10T14:44:48.618Z,45.50
2023-05-10T14:47:51.937Z,45.97
2023-05-10T14:50:55.401Z,46.35
2023-05-10T14:53:58.244Z,47.34
2023-05-10T14:57:01.734Z,47.63
2023-05-10T15:00:05.341Z,45.50
2023-05-10T15:03:09.135Z,45.81
2023-05-10T15:06:12.925Z,46.35
2023-05-10T15:09:17.391Z,47.27
2023-05-10T15:12:20.757Z,45.96
2023-05-10T15:15:23.990Z,46.84
2023-05-10T15:18:27.400Z,46.91
2023-05-10T15:21:36.306Z,46.77
2023-05-10T15:24:39.698Z,45.75
2023-05-10T15:27:44.746Z,45.92
2023-05-10T15:30:48.059Z,45.39
2023-05-10T15:33:51.231Z,46.55
2023-05-10T15:36:54.366Z,46.77
2023-05-10T15:40:04.304Z,46.05
2023-05-10T15:43:08.920Z,45.40
2023-05-10T15:46:12.298Z,46.32
2023-05-10T15:49:15.846Z,46.48
2023-05-10T15:52:19.401Z,47.95
2023-05-10T15:55:22.497Z,46.52
2023-05-10T15:58:25.817Z,46.24
2023-05-10T16:01:29.593Z,47.42
2023-05-10T16:04:35.932Z,46.94
2023-05-10T16:07:40.448Z,46.41
2023-05-10T16:10:43.711Z,47.67
2023-05-10T16:13:46.952Z,45.55
2023-05-10T16:16:50.220Z,48.51
2023-05-10T16:19:53.389Z,48.25
2023-05-10T16:22:56.982Z,48.88
2023-05-10T16:26:03.472Z,48.40
2023-05-10T16:29:10.666Z,47.14
2023-05-10T16:32:14.113Z,48.83
2023-05-10T16:35:17.420Z,48.64
2023-05-10T16:38:22.019Z,49.74
2023-05-10T16:41:25.247Z,49.97
2023-05-10T16:44:28.946Z,49.77
2023-05-10T16:47:32.174Z,51.09
2023-05-10T16:50:35.309Z,50.46
2023-05-10T16:53:38.868Z,48.42
2023-05-10T16:56:42.475Z,48.28
2023-05-10T16:59:45.686Z,48.57
2023-05-10T17:02:49.351Z,50.64
2023-05-10T17:05:52.385Z,49.75
2023-05-10T17:08:55.714Z,50.60
2023-05-10T17:11:58.777Z,52.03
2023-05-10T17:15:02.335Z,52.32
2023-05-10T17:18:07.225Z,50.38
2023-05-10T17:21:10.821Z,50.45
2023-05-10T17:24:14.463Z,49.76
2023-05-10T17:27:18.107Z,50.48
2023-05-10T17:30:28.311Z,50.57
2023-05-10T17:33:31.408Z,50.92
2023-05-10T17:36:34.780Z,50.38
2023-05-10T17:39:39.920Z,51.42
2023-05-10T17:42:43.266Z,51.22
2023-05-10T17:45:48.329Z,50.41
2023-05-10T17:48:51.378Z,52.12
2023-05-10T17:51:54.440Z,52.90
2023-05-10T17:54:58.076Z,50.53
2023-05-10T17:58:01.091Z,51.19
2023-05-10T18:01:04.960Z,50.95
2023-05-10T18:04:08.688Z,51.82
2023-05-10T18:07:11.887Z,52.17
2023-05-10T18:10:15.159Z,51.31
2023-05-10T18:13:18.275Z,50.74
2023-05-10T18:16:21.513Z,51.00
2023-05-10T18:19:27.771Z,51.94
2023-05-10T18:22:31.102Z,51.18
2023-05-10T18:25:34.594Z,51.25
2023-05-10T18:28:37.818Z,52.09
2023-05-10T18:31:41.469Z,52.20
2023-05-10T18:34:44.831Z,52.91
2023-05-10T18:37:48.936Z,52.75
2023-05-10T18:40:52.531Z,52.42
2023-05-10T18:43:56.246Z,52.96
2023-05-10T18:47:00.707Z,52.00
2023-05-10T18:50:07.753Z,53.61
2023-05-10T18:53:11.347Z,52.95
2023-05-10T18:56:14.360Z,52.66
2023-05-10T18:59:17.392Z,52.83
2023-05-10T19:02:21.044Z,53.44
2023-05-10T19:05:30.044Z,53.47
2023-05-10T19:08:33.196Z,53.85
2023-05-10T19:11:36.458Z,54.22
2023-05-10T19:14:39.559Z,54.95
2023-05-10T19:17:45.705Z,54.09
2023-05-10T19:20:49.643Z,54.71
2023-05-10T19:23:53.772Z,54.01
2023-05-10T19:26:58.437Z,54.68
2023-05-10T19:30:01.756Z,54.84
2023-05-10T19:33:06.541Z,53.97
2023-05-10T19:36:09.954Z,53.97
2023-05-10T19:39:13.415Z,53.41
2023-05-10T19:42:18.212Z,54.77
2023-05-10T19:45:21.910Z,53.85
2023-05-10T19:48:25.581Z,54.41
2023-05-10T19:51:29.115Z,54.48
2023-05-10T19:54:32.833Z,53.94
2023-05-10T19:57:36.366Z,54.89
2023-05-10T20:00:39.947Z,54.87
2023-05-10T20:03:42.905Z,55.45
2023-05-10T20:06:46.615Z,55.08
2023-05-10T20:09:49.953Z,55.10
2023-05-10T20:12:53.286Z,54.74
2023-05-10T20:15:58.383Z,54.79
2023-05-10T20:19:01.929Z,54.33
2023-05-10T20:22:05.583Z,54.94
2023-05-10T20:25:09.546Z,56.07
2023-05-10T20:28:13.464Z,56.19
2023-05-10T20:31:17.661Z,56.43
2023-05-10T20:34:21.141Z,56.39
2023-05-10T20:37:24.474Z,57.02
2023-05-10T20:40:28.318Z,57.14
2023-05-10T20:43:32.070Z,56.29
2023-05-10T20:46:36.119Z,57.04
2023-05-10T20:49:39.354Z,56.64
2023-05-10T20:52:42.893Z,57.07
2023-05-10T20:55:45.988Z,57.77
2023-05-10T20:58:49.003Z,57.53
2023-05-10T21:01:52.356Z,57.38
2023-05-10T21:04:57.740Z,57.24
2023-05-10T21:08:01.107Z,57.24
2023-05-10T21:11:07.526Z,57.28
2023-05-10T21:14:13.827Z,56.80
2023-05-10T21:17:18.149Z,57.18
2023-05-10T21:20:23.729Z,56.91
2023-05-10T21:23:26.974Z,57.10
2023-05-10T21:26:30.779Z,56.29
2023-05-10T21:29:33.844Z,58.00
2023-05-10T21:32:37.120Z,58.60
2023-05-10T21:35:42.981Z,57.38
2023-05-10T21:38:46.979Z,57.92
2023-05-10T21:41:50.133Z,57.60
2023-05-10T21:44:53.944Z,57.72
2023-05-10T21:47:57.163Z,57.15
2023-05-10T21:51:00.942Z,57.92
2023-05-10T21:54:04.015Z,58.22
2023-05-10T21:57:07.261Z,58.66
2023-05-10T22:00:11.127Z,59.10
2023-05-10T22:03:15.727Z,59.44
2023-05-10T22:06:18.860Z,59.40
2023-05-10T22:09:24.500Z,60.18
2023-05-10T22:12:27.987Z,58.75
2023-05-10T22:15:34.120Z,59.72
2023-05-10T22:18:38.864Z,59.38
2023-05-10T22:21:42.181Z,59.48
2023-05-10T22:24:45.887Z,59.40
2023-05-10T22:27:49.253Z,59.86
2023-05-10T22:30:52.420Z,60.67
2023-05-10T22:33:55.854Z,61.21
2023-05-10T22:36:59.842Z,61.00
2023-05-10T22:40:03.930Z,61.43
2023-05-10T22:43:07.123Z,61.22
2023-05-10T22:46:10.766Z,61.63
2023-05-10T22:49:14.088Z,60.98
2023-05-10T22:52:19.639Z,60.43
2023-05-10T22:55:25.594Z,61.71
2023-05-10T22:58:28.673Z,60.82
2023-05-10T23:01:31.741Z,61.76
2023-05-10T23:04:35.178Z,61.78
2023-05-10T23:07:38.210Z,60.81
2023-05-10T23:10:41.230Z,60.81
2023-05-10T23:13:44.816Z,61.05
2023-05-10T23:16:47.798Z,60.76
2023-05-10T23:19:50.753Z,60.54
2023-05-10T23:22:54.101Z,60.62
2023-05-10T23:25:57.365Z,61.78
2023-05-10T23:29:01.805Z,61.29
2023-05-10T23:32:05.103Z,60.51
2023-05-10T23:35:08.999Z,61.59
2023-05-10T23:38:12.372Z,61.68
2023-05-10T23:41:15.314Z,61.17
2023-05-10T23:44:20.361Z,62.45
2023-05-10T23:47:23.318Z,62.59
2023-05-10T23:50:26.434Z,61.19
2023-05-10T23:53:29.438Z,61.64
2023-05-10T23:56:32.449Z,61.03
2023-05-10T23:59:36.154Z,61.85
